sensor_id;sensor_type;location;lat;lon;timestamp;pressure;altitude;pressure_sealevel;temperature;humidity
9460;BME280;4768;42.664;23.240;2023-02-20T00:02:16;169357.97;;;9.14;100.00
9460;BME280;4768;42.664;23.240;2023-02-20T00:04:43;169367.25;;;9.17;100.00
9460;BME280;4768;42.664;23.240;2023-02-20T00:07:11;169349.97;;;9.11;100.00
9460;BME280;4768;42.664;23.240;2023-02-20T00:09:38;169356.66;;;9.14;100.00
9460;BME280;4768;42.664;23.240;2023-02-20T00:12:05;169364.63;;;9.16;100.00
9460;BME280;4768;42.664;23.240;2023-02-20T00:14:32;169335.31;;;9.06;100.00
9460;BME280;4768;42.664;23.240;2023-02-20T00:17:00;169336.69;;;9.06;100.00
9460;BME280;4768;42.664;23.240;2023-02-20T00:19:27;169322.00;;;9.01;100.00
9460;BME280;4768;42.664;23.240;2023-02-20T00:21:54;169300.75;;;8.93;100.00
9460;BME280;4768;42.664;23.240;2023-02-20T00:24:20;169327.31;;;9.03;100.00
9460;BME280;4768;42.664;23.240;2023-02-20T00:26:48;169312.72;;;8.97;100.00
9460;BME280;4768;42.664;23.240;2023-02-20T00:29:16;169288.75;;;8.88;100.00
9460;BME280;4768;42.664;23.240;2023-02-20T00:31:49;169287.41;;;8.88;100.00
9460;BME280;4768;42.664;23.240;2023-02-20T00:34:18;169283.41;;;8.86;100.00
9460;BME280;4768;42.664;23.240;2023-02-20T00:36:44;169272.75;;;8.82;100.00
9460;BME280;4768;42.664;23.240;2023-02-20T00:39:11;169270.13;;;8.81;100.00
9460;BME280;4768;42.664;23.240;2023-02-20T00:41:38;169266.13;;;8.80;100.00
9460;BME280;4768;42.664;23.240;2023-02-20T00:44:05;169244.78;;;8.72;100.00
9460;BME280;4768;42.664;23.240;2023-02-20T00:46:32;169236.81;;;8.69;100.00
9460;BME280;4768;42.664;23.240;2023-02-20T00:48:58;169235.50;;;8.68;100.00
9460;BME280;4768;42.664;23.240;2023-02-20T00:51:26;169230.19;;;8.67;100.00
9460;BME280;4768;42.664;23.240;2023-02-20T00:53:53;169231.50;;;8.67;100.00
9460;BME280;4768;42.664;23.240;2023-02-20T00:56:20;169204.88;;;8.57;100.00
9460;BME280;4768;42.664;23.240;2023-02-20T00:58:46;169215.53;;;8.61;100.00
9460;BME280;4768;42.664;23.240;2023-02-20T01:01:13;169200.88;;;8.56;100.00
9460;BME280;4768;42.664;23.240;2023-02-20T01:03:40;169198.25;;;8.55;100.00
9460;BME280;4768;42.664;23.240;2023-02-20T01:06:07;169188.91;;;8.51;100.00
9460;BME280;4768;42.664;23.240;2023-02-20T01:08:36;169180.91;;;8.48;100.00
9460;BME280;4768;42.664;23.240;2023-02-20T01:11:02;169186.28;;;8.50;100.00
9460;BME280;4768;42.664;23.240;2023-02-20T01:13:29;169182.28;;;8.49;100.00
9460;BME280;4768;42.664;23.240;2023-02-20T01:15:56;169184.91;;;8.50;100.00
9460;BME280;4768;42.664;23.240;2023-02-20T01:18:23;162386.16;;;8.50;100.00
9460;BME280;4768;42.664;23.240;2023-02-20T01:20:49;150592.75;;;8.47;100.00
9460;BME280;4768;42.664;23.240;2023-02-20T01:23:16;111591.38;;;8.47;100.00
9460;BME280;4768;42.664;23.240;2023-02-20T01:25:44;106668.72;;;8.54;100.00
9460;BME280;4768;42.664;23.240;2023-02-20T01:28:11;103859.66;;;8.58;100.00
9460;BME280;4768;42.664;23.240;2023-02-20T01:30:38;105978.91;;;8.63;100.00
9460;BME280;4768;42.664;23.240;2023-02-20T01:33:05;104918.66;;;8.60;100.00
9460;BME280;4768;42.664;23.240;2023-02-20T01:35:31;86304.59;;;8.55;100.00
9460;BME280;4768;42.664;23.240;2023-02-20T01:37:59;45922.59;;;8.40;100.00
9460;BME280;4768;42.664;23.240;2023-02-20T01:40:29;28669.88;;;8.34;100.00
9460;BME280;4768;42.664;23.240;2023-02-20T01:42:57;20078.59;;;8.34;100.00
9460;BME280;4768;42.664;23.240;2023-02-20T01:45:32;15964.88;;;8.51;100.00
9460;BME280;4768;42.664;23.240;2023-02-20T01:47:59;11167.59;;;8.41;100.00
9460;BME280;4768;42.664;23.240;2023-02-20T01:50:29;5695.28;;;8.33;100.00
9460;BME280;4768;42.664;23.240;2023-02-20T01:53:01;2621.41;;;8.32;100.00
9460;BME280;4768;42.664;23.240;2023-02-20T01:55:30;574.25;;;8.28;100.00
9460;BME280;4768;42.664;23.240;2023-02-20T01:58:02;-108.09;;;8.29;100.00
9460;BME280;4768;42.664;23.240;2023-02-20T02:00:31;233.13;;;8.28;100.00
9460;BME280;4768;42.664;23.240;2023-02-20T02:03:00;-107.25;;;8.22;100.00
9460;BME280;4768;42.664;23.240;2023-02-20T02:05:30;916.22;;;8.21;100.00
9460;BME280;4768;42.664;23.240;2023-02-20T02:07:59;1258.03;;;8.15;100.00
9460;BME280;4768;42.664;23.240;2023-02-20T02:10:31;5013.22;;;8.06;100.00
9460;BME280;4768;42.664;23.240;2023-02-20T02:13:02;7062.94;;;7.96;100.00
9460;BME280;4768;42.664;23.240;2023-02-20T02:15:29;7063.00;;;7.93;100.00
9460;BME280;4768;42.664;23.240;2023-02-20T02:18:23;6038.22;;;7.94;100.00
9460;BME280;4768;42.664;23.240;2023-02-20T02:21:14;9797.38;;;8.00;100.00
9460;BME280;4768;42.664;23.240;2023-02-20T02:24:16;9455.22;;;7.92;100.00
9460;BME280;4768;42.664;23.240;2023-02-20T02:27:08;7404.75;;;7.82;100.00
9460;BME280;4768;42.664;23.240;2023-02-20T02:29:55;6038.81;;;7.75;100.00
9460;BME280;4768;42.664;23.240;2023-02-20T02:38:31;5356.97;;;7.54;100.00
9460;BME280;4768;42.664;23.240;2023-02-20T02:41:04;7405.00;;;7.54;100.00
9460;BME280;4768;42.664;23.240;2023-02-20T02:43:37;10479.53;;;7.57;100.00
9460;BME280;4768;42.664;23.240;2023-02-20T02:46:10;13899.31;;;7.59;100.00
9460;BME280;4768;42.664;23.240;2023-02-20T02:48:41;15609.78;;;7.53;100.00
9460;BME280;4768;42.664;23.240;2023-02-20T02:51:14;13898.38;;;7.49;100.00
9460;BME280;4768;42.664;23.240;2023-02-20T02:54:03;13556.09;;;7.47;100.00
9460;BME280;4768;42.664;23.240;2023-02-20T02:56:33;14582.38;;;7.47;100.00
9460;BME280;4768;42.664;23.240;2023-02-20T02:59:00;14582.44;;;7.47;100.00
9460;BME280;4768;42.664;23.240;2023-02-20T03:01:28;13897.72;;;7.42;100.00
9460;BME280;4768;42.664;23.240;2023-02-20T03:03:58;12187.38;;;7.35;100.00
9460;BME280;4768;42.664;23.240;2023-02-20T03:06:30;10820.25;;;7.33;100.00
9460;BME280;4768;42.664;23.240;2023-02-20T03:09:04;9795.25;;;7.30;100.00
9460;BME280;4768;42.664;23.240;2023-02-20T03:11:33;9453.97;;;7.40;100.00
9460;BME280;4768;42.664;23.240;2023-02-20T03:14:03;12187.34;;;7.34;100.00
9460;BME280;4768;42.664;23.240;2023-02-20T03:16:52;12528.75;;;7.28;100.00
9460;BME280;4768;42.664;23.240;2023-02-20T03:19:25;11844.41;;;7.17;100.00
9460;BME280;4768;42.664;23.240;2023-02-20T03:21:54;10136.16;;;7.11;100.00
9460;BME280;4768;42.664;23.240;2023-02-20T03:24:24;8770.41;;;7.04;100.00
9460;BME280;4768;42.664;23.240;2023-02-20T03:26:55;9111.97;;;7.17;100.00
9460;BME280;4768;42.664;23.240;2023-02-20T03:29:26;10819.25;;;7.12;100.00
9460;BME280;4768;42.664;23.240;2023-02-20T03:31:57;11844.16;;;7.13;100.00
9460;BME280;4768;42.664;23.240;2023-02-20T03:34:45;12527.47;;;7.11;100.00
9460;BME280;4768;42.664;23.240;2023-02-20T03:37:31;12527.00;;;7.05;100.00
9460;BME280;4768;42.664;23.240;2023-02-20T03:40:19;13209.94;;;6.99;100.00
9460;BME280;4768;42.664;23.240;2023-02-20T03:43:08;12868.50;;;7.02;100.00
9460;BME280;4768;42.664;23.240;2023-02-20T03:45:50;16288.72;;;7.11;100.00
9460;BME280;4768;42.664;23.240;2023-02-20T03:48:20;16972.09;;;7.05;100.00
9460;BME280;4768;42.664;23.240;2023-02-20T03:50:49;17998.25;;;7.02;100.00
9460;BME280;4768;42.664;23.240;2023-02-20T03:53:33;18340.69;;;7.03;100.00
9460;BME280;4768;42.664;23.240;2023-02-20T03:56:03;21765.69;;;7.04;100.00
9460;BME280;4768;42.664;23.240;2023-02-20T03:58:33;23134.50;;;6.96;100.00
9460;BME280;4768;42.664;23.240;2023-02-20T04:01:04;25536.16;;;7.01;100.00
9460;BME280;4768;42.664;23.240;2023-02-20T04:03:37;28974.13;;;7.19;100.00
9460;BME280;4768;42.664;23.240;2023-02-20T04:06:06;35853.66;;;7.25;100.00
9460;BME280;4768;42.664;23.240;2023-02-20T04:08:37;40333.84;;;7.29;100.00
9460;BME280;4768;42.664;23.240;2023-02-20T04:11:08;44819.78;;;7.32;100.00
9460;BME280;4768;42.664;23.240;2023-02-20T04:13:37;46894.38;;;7.37;100.00
9460;BME280;4768;42.664;23.240;2023-02-20T04:16:05;48966.84;;;7.36;100.00
9460;BME280;4768;42.664;23.240;2023-02-20T04:18:33;48621.56;;;7.36;100.00
9460;BME280;4768;42.664;23.240;2023-02-20T04:21:02;47584.63;;;7.36;100.00
9460;BME280;4768;42.664;23.240;2023-02-20T04:23:33;43092.91;;;7.30;100.00
9460;BME280;4768;42.664;23.240;2023-02-20T04:26:06;38264.53;;;7.26;100.00
9460;BME280;4768;42.664;23.240;2023-02-20T04:28:34;36541.22;;;7.23;100.00
9460;BME280;4768;42.664;23.240;2023-02-20T04:31:01;39985.78;;;7.23;100.00
9460;BME280;4768;42.664;23.240;2023-02-20T04:33:28;39638.59;;;7.18;100.00
9460;BME280;4768;42.664;23.240;2023-02-20T04:35:55;43087.19;;;7.20;100.00
9460;BME280;4768;42.664;23.240;2023-02-20T04:38:23;49645.97;;;7.18;100.00
9460;BME280;4768;42.664;23.240;2023-02-20T04:40:49;63155.06;;;7.22;100.00
9460;BME280;4768;42.664;23.240;2023-02-20T04:43:18;68705.63;;;7.17;100.00
9460;BME280;4768;42.664;23.240;2023-02-20T04:45:44;74967.44;;;7.17;100.00
9460;BME280;4768;42.664;23.240;2023-02-20T04:48:11;74613.31;;;7.12;100.00
9460;BME280;4768;42.664;23.240;2023-02-20T04:50:38;76345.34;;;7.04;100.00
9460;BME280;4768;42.664;23.240;2023-02-20T04:53:05;75285.97;;;6.90;100.00
9460;BME280;4768;42.664;23.240;2023-02-20T04:55:32;75284.31;;;6.89;100.00
9460;BME280;4768;42.664;23.240;2023-02-20T04:57:59;79109.69;;;6.84;100.00
9460;BME280;4768;42.664;23.240;2023-02-20T05:00:27;83985.19;;;6.80;100.00
9460;BME280;4768;42.664;23.240;2023-02-20T05:02:54;92718.03;;;6.80;100.00
9460;BME280;4768;42.664;23.240;2023-02-20T05:05:22;105672.75;;;6.73;100.00
9460;BME280;4768;42.664;23.240;2023-02-20T05:07:53;116214.03;;;6.71;100.00
9460;BME280;4768;42.664;23.240;2023-02-20T05:10:21;121830.06;;;6.59;100.00
9460;BME280;4768;42.664;23.240;2023-02-20T05:12:48;126410.50;;;6.56;100.00
9460;BME280;4768;42.664;23.240;2023-02-20T05:15:15;127453.97;;;6.48;100.00
9460;BME280;4768;42.664;23.240;2023-02-20T05:17:43;122853.91;;;6.41;100.00
9460;BME280;4768;42.664;23.240;2023-02-20T05:20:11;119685.03;;;6.43;100.00
9460;BME280;4768;42.664;23.240;2023-02-20T05:22:38;118980.59;;;6.43;100.00
9460;BME280;4768;42.664;23.240;2023-02-20T05:25:05;115457.88;;;6.41;100.00
9460;BME280;4768;42.664;23.240;2023-02-20T05:27:31;107025.94;;;6.42;100.00
9460;BME280;4768;42.664;23.240;2023-02-20T05:29:59;100027.69;;;6.52;100.00
9460;BME280;4768;42.664;23.240;2023-02-20T05:32:27;98637.06;;;6.59;100.00
9460;BME280;4768;42.664;23.240;2023-02-20T05:34:56;93735.19;;;6.57;100.00
9460;BME280;4768;42.664;23.240;2023-02-20T05:37:25;89552.31;;;6.66;100.00
9460;BME280;4768;42.664;23.240;2023-02-20T05:39:52;85710.94;;;6.65;100.00
9460;BME280;4768;42.664;23.240;2023-02-20T05:42:19;84670.47;;;6.70;100.00
9460;BME280;4768;42.664;23.240;2023-02-20T05:44:47;84676.75;;;6.75;100.00
9460;BME280;4768;42.664;23.240;2023-02-20T05:47:14;88530.09;;;6.85;100.00
9460;BME280;4768;42.664;23.240;2023-02-20T05:49:41;95896.78;;;7.00;100.00
9460;BME280;4768;42.664;23.240;2023-02-20T05:52:10;114858.66;;;7.00;100.00
9460;BME280;4768;42.664;23.240;2023-02-20T05:54:38;131460.59;;;7.07;100.00
9460;BME280;4768;42.664;23.240;2023-02-20T05:57:05;143898.91;;;7.22;100.00
9460;BME280;4768;42.664;23.240;2023-02-20T05:59:31;162419.72;;;7.24;100.00
9460;BME280;4768;42.664;23.240;2023-02-20T06:01:59;168876.25;;;7.35;100.00
9460;BME280;4768;42.664;23.240;2023-02-20T06:04:26;168905.53;;;7.46;100.00
9460;BME280;4768;42.664;23.240;2023-02-20T06:06:54;168905.53;;;7.46;100.00
9460;BME280;4768;42.664;23.240;2023-02-20T06:09:22;168901.53;;;7.44;100.00
9460;BME280;4768;42.664;23.240;2023-02-20T06:11:50;168900.19;;;7.44;100.00
9460;BME280;4768;42.664;23.240;2023-02-20T06:14:18;168920.13;;;7.51;100.00
9460;BME280;4768;42.664;23.240;2023-02-20T06:16:45;168968.03;;;7.69;100.00
9460;BME280;4768;42.664;23.240;2023-02-20T06:19:17;168972.03;;;7.70;100.00
9460;BME280;4768;42.664;23.240;2023-02-20T06:21:44;168969.38;;;7.69;100.00
9460;BME280;4768;42.664;23.240;2023-02-20T06:24:11;169014.56;;;7.86;100.00
9460;BME280;4768;42.664;23.240;2023-02-20T06:26:40;169101.09;;;8.18;100.00
9460;BME280;4768;42.664;23.240;2023-02-20T06:29:07;169109.06;;;8.21;100.00
9460;BME280;4768;42.664;23.240;2023-02-20T06:31:34;169148.97;;;8.36;100.00
9460;BME280;4768;42.664;23.240;2023-02-20T06:34:01;169115.75;;;8.24;100.00
9460;BME280;4768;42.664;23.240;2023-02-20T06:36:31;169130.38;;;8.29;100.00
9460;BME280;4768;42.664;23.240;2023-02-20T06:38:58;169143.69;;;8.34;100.00
9460;BME280;4768;42.664;23.240;2023-02-20T06:41:25;169130.38;;;8.29;100.00
9460;BME280;4768;42.664;23.240;2023-02-20T06:43:53;169105.09;;;8.20;100.00
9460;BME280;4768;42.664;23.240;2023-02-20T06:46:20;169045.16;;;7.98;100.00
9460;BME280;4768;42.664;23.240;2023-02-20T06:48:49;169029.22;;;7.92;100.00
9460;BME280;4768;42.664;23.240;2023-02-20T06:51:16;169027.91;;;7.91;100.00
9460;BME280;4768;42.664;23.240;2023-02-20T06:53:43;168997.28;;;7.80;100.00
9460;BME280;4768;42.664;23.240;2023-02-20T06:56:13;169002.59;;;7.82;100.00
9460;BME280;4768;42.664;23.240;2023-02-20T06:58:43;169053.16;;;8.01;100.00
9460;BME280;4768;42.664;23.240;2023-02-20T07:01:11;169026.53;;;7.91;100.00
9460;BME280;4768;42.664;23.240;2023-02-20T07:03:37;169045.16;;;7.98;100.00
9460;BME280;4768;42.664;23.240;2023-02-20T07:06:05;169109.06;;;8.21;100.00
9460;BME280;4768;42.664;23.240;2023-02-20T07:08:31;169141.00;;;8.33;100.00
9460;BME280;4768;42.664;23.240;2023-02-20T07:10:58;169231.50;;;8.67;100.00
9460;BME280;4768;42.664;23.240;2023-02-20T07:13:25;169322.00;;;9.01;100.00
9460;BME280;4768;42.664;23.240;2023-02-20T07:15:52;169345.97;;;9.10;100.00
9460;BME280;4768;42.664;23.240;2023-02-20T07:18:20;169295.38;;;8.91;100.00
9460;BME280;4768;42.664;23.240;2023-02-20T07:20:48;169232.81;;;8.67;100.00
9460;BME280;4768;42.664;23.240;2023-02-20T07:23:15;169244.78;;;8.72;100.00
9460;BME280;4768;42.664;23.240;2023-02-20T07:25:42;169260.75;;;8.78;100.00
9460;BME280;4768;42.664;23.240;2023-02-20T07:28:09;169182.28;;;8.49;100.00
9460;BME280;4768;42.664;23.240;2023-02-20T07:30:36;169102.41;;;8.19;100.00
9460;BME280;4768;42.664;23.240;2023-02-20T07:33:03;169163.63;;;8.42;100.00
9460;BME280;4768;42.664;23.240;2023-02-20T07:35:31;169194.25;;;8.53;100.00
9460;BME280;4768;42.664;23.240;2023-02-20T07:37:58;169271.44;;;8.82;100.00
9460;BME280;4768;42.664;23.240;2023-02-20T07:40:24;169283.41;;;8.86;100.00
9460;BME280;4768;42.664;23.240;2023-02-20T07:42:51;169302.06;;;8.93;100.00
9460;BME280;4768;42.664;23.240;2023-02-20T07:45:19;169292.75;;;8.90;100.00
9460;BME280;4768;42.664;23.240;2023-02-20T07:47:45;169310.03;;;8.96;100.00
9460;BME280;4768;42.664;23.240;2023-02-20T07:50:13;169266.13;;;8.80;100.00
9460;BME280;4768;42.664;23.240;2023-02-20T07:52:41;169263.44;;;8.79;100.00
9460;BME280;4768;42.664;23.240;2023-02-20T07:55:08;169328.69;;;9.03;100.00
9460;BME280;4768;42.664;23.240;2023-02-20T07:57:36;169290.06;;;8.89;100.00
9460;BME280;4768;42.664;23.240;2023-02-20T08:00:04;169417.88;;;9.36;100.00
9460;BME280;4768;42.664;23.240;2023-02-20T08:02:31;169548.38;;;9.85;100.00
9460;BME280;4768;42.664;23.240;2023-02-20T08:04:58;169551.06;;;9.86;100.00
9460;BME280;4768;42.664;23.240;2023-02-20T08:07:25;169507.13;;;9.69;100.00
9460;BME280;4768;42.664;23.240;2023-02-20T08:09:53;169400.56;;;9.30;100.00
9460;BME280;4768;42.664;23.240;2023-02-20T08:12:19;169560.38;;;9.89;100.00
9460;BME280;4768;42.664;23.240;2023-02-20T08:14:48;169613.69;;;10.09;100.00
9460;BME280;4768;42.664;23.240;2023-02-20T08:17:15;169517.72;;;9.73;100.00
9460;BME280;4768;42.664;23.240;2023-02-20T08:19:42;169589.69;;;10.00;100.00
9460;BME280;4768;42.664;23.240;2023-02-20T08:22:09;169536.41;;;9.80;100.00
9460;BME280;4768;42.664;23.240;2023-02-20T08:24:35;169547.06;;;9.84;100.00
9460;BME280;4768;42.664;23.240;2023-02-20T08:27:04;169428.53;;;9.40;100.00
9460;BME280;4768;42.664;23.240;2023-02-20T08:29:31;169709.66;;;10.45;100.00
9460;BME280;4768;42.664;23.240;2023-02-20T08:31:57;169623.03;;;10.13;100.00
9460;BME280;4768;42.664;23.240;2023-02-20T08:34:24;169569.66;;;9.93;100.00
9460;BME280;4768;42.664;23.240;2023-02-20T08:36:51;169611.06;;;10.08;100.00
9460;BME280;4768;42.664;23.240;2023-02-20T08:39:18;169660.31;;;10.26;100.00
9460;BME280;4768;42.664;23.240;2023-02-20T08:41:46;169559.06;;;9.89;100.00
9460;BME280;4768;42.664;23.240;2023-02-20T08:44:14;169769.63;;;10.67;100.00
9460;BME280;4768;42.664;23.240;2023-02-20T08:46:45;169757.63;;;10.62;100.00
9460;BME280;4768;42.664;23.240;2023-02-20T08:49:12;169659.00;;;10.26;100.00
9460;BME280;4768;42.664;23.240;2023-02-20T08:51:38;169708.28;;;10.44;100.00
9460;BME280;4768;42.664;23.240;2023-02-20T08:54:05;169631.03;;;10.15;100.00
9460;BME280;4768;42.664;23.240;2023-02-20T08:56:32;169557.69;;;9.88;100.00
9460;BME280;4768;42.664;23.240;2023-02-20T08:58:59;169519.09;;;9.74;100.00
9460;BME280;4768;42.664;23.240;2023-02-20T09:01:27;169612.38;;;10.09;100.00
9460;BME280;4768;42.664;23.240;2023-02-20T09:03:53;169608.38;;;10.07;100.00
9460;BME280;4768;42.664;23.240;2023-02-20T09:06:20;169521.72;;;9.75;100.00
9460;BME280;4768;42.664;23.240;2023-02-20T09:08:49;169435.16;;;9.43;100.00
9460;BME280;4768;42.664;23.240;2023-02-20T09:11:15;169488.44;;;9.63;100.00
9460;BME280;4768;42.664;23.240;2023-02-20T09:13:43;169548.38;;;9.85;100.00
9460;BME280;4768;42.664;23.240;2023-02-20T09:16:10;169672.31;;;10.31;100.00
9460;BME280;4768;42.664;23.240;2023-02-20T09:18:38;169804.28;;;10.80;100.00
9460;BME280;4768;42.664;23.240;2023-02-20T09:21:08;169587.06;;;9.99;100.00
9460;BME280;4768;42.664;23.240;2023-02-20T09:23:35;169623.03;;;10.13;100.00
9460;BME280;4768;42.664;23.240;2023-02-20T09:26:02;169573.72;;;9.94;100.00
9460;BME280;4768;42.664;23.240;2023-02-20T09:28:29;169636.34;;;10.17;100.00
9460;BME280;4768;42.664;23.240;2023-02-20T09:30:56;169608.38;;;10.07;100.00
9460;BME280;4768;42.664;23.240;2023-02-20T09:33:25;169660.31;;;10.26;100.00
9460;BME280;4768;42.664;23.240;2023-02-20T09:35:54;169687.00;;;10.36;100.00
9460;BME280;4768;42.664;23.240;2023-02-20T09:38:21;169656.31;;;10.25;100.00
9460;BME280;4768;42.664;23.240;2023-02-20T09:40:53;169673.69;;;10.31;100.00
9460;BME280;4768;42.664;23.240;2023-02-20T09:43:29;169760.25;;;10.63;100.00
9460;BME280;4768;42.664;23.240;2023-02-20T09:46:05;169776.25;;;10.69;100.00
9460;BME280;4768;42.664;23.240;2023-02-20T09:48:41;169712.28;;;10.46;100.00
9460;BME280;4768;42.664;23.240;2023-02-20T09:51:13;169734.94;;;10.54;100.00
9460;BME280;4768;42.664;23.240;2023-02-20T09:53:50;169866.88;;;11.03;100.00
9460;BME280;4768;42.664;23.240;2023-02-20T09:56:20;169713.66;;;10.46;100.00
9460;BME280;4768;42.664;23.240;2023-02-20T09:58:53;169712.28;;;10.46;100.00
9460;BME280;4768;42.664;23.240;2023-02-20T10:01:22;169778.91;;;10.70;100.00
9460;BME280;4768;42.664;23.240;2023-02-20T10:03:54;169780.25;;;10.71;100.00
9460;BME280;4768;42.664;23.240;2023-02-20T10:06:24;169924.25;;;11.24;100.00
9460;BME280;4768;42.664;23.240;2023-02-20T10:08:52;169854.91;;;10.99;100.00
9460;BME280;4768;42.664;23.240;2023-02-20T10:11:31;169744.25;;;10.58;94.92
9460;BME280;4768;42.664;23.240;2023-02-20T10:14:11;169745.63;;;10.58;94.91
9460;BME280;4768;42.664;23.240;2023-02-20T10:16:45;169770.94;;;10.67;93.77
9460;BME280;4768;42.664;23.240;2023-02-20T10:19:19;169870.88;;;11.05;92.95
9460;BME280;4768;42.664;23.240;2023-02-20T10:21:54;169892.25;;;11.12;93.11
9460;BME280;4768;42.664;23.240;2023-02-20T10:24:36;169850.88;;;10.97;90.74
9460;BME280;4768;42.664;23.240;2023-02-20T10:27:17;169852.25;;;10.98;90.99
9460;BME280;4768;42.664;23.240;2023-02-20T10:29:48;169913.56;;;11.20;91.63
9460;BME280;4768;42.664;23.240;2023-02-20T10:32:18;169926.88;;;11.25;89.60
9460;BME280;4768;42.664;23.240;2023-02-20T10:34:54;169753.63;;;10.61;87.78
9460;BME280;4768;42.664;23.240;2023-02-20T10:37:26;169881.56;;;11.08;90.46
9460;BME280;4768;42.664;23.240;2023-02-20T10:39:59;169956.25;;;11.36;88.96
9460;BME280;4768;42.664;23.240;2023-02-20T10:42:31;169822.91;;;10.87;86.07
9460;BME280;4768;42.664;23.240;2023-02-20T10:45:02;169953.56;;;11.35;87.44
9460;BME280;4768;42.664;23.240;2023-02-20T10:47:41;169988.28;;;11.48;86.95
9460;BME280;4768;42.664;23.240;2023-02-20T10:50:14;169908.25;;;11.18;86.42
9460;BME280;4768;42.664;23.240;2023-02-20T10:52:47;169870.88;;;11.05;89.53
9460;BME280;4768;42.664;23.240;2023-02-20T10:55:19;169896.25;;;11.14;89.63
9460;BME280;4768;42.664;23.240;2023-02-20T10:57:53;169964.22;;;11.39;88.32
9460;BME280;4768;42.664;23.240;2023-02-20T11:00:27;169993.59;;;11.50;89.45
9460;BME280;4768;42.664;23.240;2023-02-20T11:03:01;170060.28;;;11.75;90.05
9460;BME280;4768;42.664;23.240;2023-02-20T11:05:32;170022.97;;;11.61;90.99
9460;BME280;4768;42.664;23.240;2023-02-20T11:08:02;169917.56;;;11.22;90.32
9460;BME280;4768;42.664;23.240;2023-02-20T11:10:29;170020.28;;;11.60;91.77
9460;BME280;4768;42.664;23.240;2023-02-20T11:12:57;169993.59;;;11.50;91.13
9460;BME280;4768;42.664;23.240;2023-02-20T11:15:28;169893.56;;;11.13;89.40
9460;BME280;4768;42.664;23.240;2023-02-20T11:17:58;169928.25;;;11.26;92.58
9460;BME280;4768;42.664;23.240;2023-02-20T11:20:45;169978.91;;;11.45;91.67
9460;BME280;4768;42.664;23.240;2023-02-20T11:23:39;170065.59;;;11.77;90.88
9460;BME280;4768;42.664;23.240;2023-02-20T11:26:14;170104.31;;;11.91;88.56
9460;BME280;4768;42.664;23.240;2023-02-20T11:28:55;169972.22;;;11.42;91.55
9460;BME280;4768;42.664;23.240;2023-02-20T11:31:23;169996.28;;;11.51;91.85
9460;BME280;4768;42.664;23.240;2023-02-20T11:33:53;169912.25;;;11.20;90.18
9460;BME280;4768;42.664;23.240;2023-02-20T11:36:22;169845.56;;;10.95;89.62
9460;BME280;4768;42.664;23.240;2023-02-20T11:38:57;169850.88;;;10.97;90.45
9460;BME280;4768;42.664;23.240;2023-02-20T11:41:30;169873.56;;;11.06;89.78
9460;BME280;4768;42.664;23.240;2023-02-20T11:44:06;169938.88;;;11.30;89.84
9460;BME280;4768;42.664;23.240;2023-02-20T11:46:42;169957.56;;;11.37;88.29
9460;BME280;4768;42.664;23.240;2023-02-20T11:49:10;169948.22;;;11.33;89.11
9460;BME280;4768;42.664;23.240;2023-02-20T11:51:39;170062.97;;;11.76;89.02
9460;BME280;4768;42.664;23.240;2023-02-20T11:54:11;170006.97;;;11.55;88.53
9460;BME280;4768;42.664;23.240;2023-02-20T11:56:53;170125.63;;;11.99;89.88
9460;BME280;4768;42.664;23.240;2023-02-20T11:59:38;170050.97;;;11.71;85.42
9460;BME280;4768;42.664;23.240;2023-02-20T12:02:21;169953.56;;;11.35;86.18
9460;BME280;4768;42.664;23.240;2023-02-20T12:05:10;170017.59;;;11.59;87.14
9460;BME280;4768;42.664;23.240;2023-02-20T12:07:39;169961.56;;;11.38;85.24
9460;BME280;4768;42.664;23.240;2023-02-20T12:10:20;170026.97;;;11.62;86.12
9460;BME280;4768;42.664;23.240;2023-02-20T12:12:49;169964.22;;;11.39;84.58
9460;BME280;4768;42.664;23.240;2023-02-20T12:15:18;169892.25;;;11.12;86.55
9460;BME280;4768;42.664;23.240;2023-02-20T12:20:49;170038.97;;;11.67;85.54
9460;BME280;4768;42.664;23.240;2023-02-20T12:23:26;169978.91;;;11.45;88.87
9460;BME280;4768;42.664;23.240;2023-02-20T12:26:09;169949.53;;;11.34;87.44
9460;BME280;4768;42.664;23.240;2023-02-20T12:28:47;169921.56;;;11.23;87.43
9460;BME280;4768;42.664;23.240;2023-02-20T12:31:30;169820.28;;;10.86;88.12
9460;BME280;4768;42.664;23.240;2023-02-20T12:34:24;169848.25;;;10.96;88.96
9460;BME280;4768;42.664;23.240;2023-02-20T12:37:02;169936.25;;;11.29;89.52
9460;BME280;4768;42.664;23.240;2023-02-20T12:39:37;170161.69;;;12.12;88.52
9460;BME280;4768;42.664;23.240;2023-02-20T12:42:26;169972.22;;;11.42;90.45
9460;BME280;4768;42.664;23.240;2023-02-20T12:45:22;169854.91;;;10.99;88.47
9460;BME280;4768;42.664;23.240;2023-02-20T12:48:08;169934.88;;;11.28;90.54
9460;BME280;4768;42.664;23.240;2023-02-20T12:50:52;170004.28;;;11.54;89.02
9460;BME280;4768;42.664;23.240;2023-02-20T12:53:47;169926.88;;;11.25;89.15
9460;BME280;4768;42.664;23.240;2023-02-20T12:56:25;169965.53;;;11.40;89.07
9460;BME280;4768;42.664;23.240;2023-02-20T12:59:00;170057.59;;;11.74;88.76
9460;BME280;4768;42.664;23.240;2023-02-20T13:01:33;170135.00;;;12.03;87.91
9460;BME280;4768;42.664;23.240;2023-02-20T13:04:02;170010.97;;;11.57;87.64
9460;BME280;4768;42.664;23.240;2023-02-20T13:06:35;170077.59;;;11.81;89.90
9460;BME280;4768;42.664;23.240;2023-02-20T13:09:10;170092.28;;;11.87;86.96
9460;BME280;4768;42.664;23.240;2023-02-20T13:11:44;170060.28;;;11.75;88.01
9460;BME280;4768;42.664;23.240;2023-02-20T13:14:29;170017.59;;;11.59;88.87
9460;BME280;4768;42.664;23.240;2023-02-20T13:17:06;170022.97;;;11.61;91.90
9460;BME280;4768;42.664;23.240;2023-02-20T13:19:38;169921.56;;;11.23;92.01
9460;BME280;4768;42.664;23.240;2023-02-20T13:22:06;169998.97;;;11.52;93.33
9460;BME280;4768;42.664;23.240;2023-02-20T13:24:34;170044.28;;;11.69;92.51
9460;BME280;4768;42.664;23.240;2023-02-20T13:27:02;170026.97;;;11.62;93.34
9460;BME280;4768;42.664;23.240;2023-02-20T13:29:34;170072.28;;;11.79;93.62
9460;BME280;4768;42.664;23.240;2023-02-20T13:32:04;170104.31;;;11.91;93.90